Observation data for Abernathy on 01/11/2018      Previous  Date  Next       Current Mesonet Observations  Soil Data  Daily Summary Page  Observations in Plain Language
KARS 110600Z 23016KT 08/00 A2956 RMK A01 T00760004  RH  061%=      5-min Rain = 0
KARS 110605Z 23018KT 08/00 A2956 RMK A01 T00750003  RH  061%=      5-min Rain = 0
KARS 110610Z 23018G25KT 08/00 A2956 RMK A01 T00780001  RH  059%=      5-min Rain = 0
KARS 110615Z 23020G26KT 08/00 A2956 RMK A01 T008300-0  RH  056%=      5-min Rain = 0
KARS 110620Z 23021G27KT 09/M00 A2956 RMK A01 T00871001  RH  055%=      5-min Rain = 0
KARS 110625Z 23021G27KT 09/M00 A2956 RMK A01 T00881001  RH  054%=      5-min Rain = 0
KARS 110630Z 23020G26KT 09/M00 A2956 RMK A01 T00861001  RH  055%=      5-min Rain = 0
KARS 110635Z 23021G27KT 08/M00 A2956 RMK A01 T00841001  RH  056%=      5-min Rain = 0
KARS 110640Z 23022G28KT 08/00 A2956 RMK A01 T00840000  RH  056%=      5-min Rain = 0
KARS 110645Z 23023G28KT 08/00 A2956 RMK A01 T00840001  RH  057%=      5-min Rain = 0
KARS 110650Z 23022G28KT 08/00 A2956 RMK A01 T00840001  RH  057%=      5-min Rain = 0
KARS 110655Z 23019G27KT 08/00 A2956 RMK A01 T00820001  RH  057%=      5-min Rain = 0
KARS 110700Z 24020G27KT 08/00 A2956 RMK A01 T00800002  RH  059%=      5-min Rain = 0
KARS 110705Z 23022G29KT 08/00 A2957 RMK A01 T00800003  RH  059%=      5-min Rain = 0
KARS 110710Z 24021G26KT 08/00 A2957 RMK A01 T00800003  RH  059%=      5-min Rain = 0
KARS 110715Z 23021G26KT 08/00 A2958 RMK A01 T00790003  RH  059%=      5-min Rain = 0
KARS 110720Z 23020G27KT 08/00 A2958 RMK A01 T00780003  RH  060%=      5-min Rain = 0
KARS 110725Z 23020G26KT 08/00 A2958 RMK A01 T00780003  RH  060%=      5-min Rain = 0
KARS 110730Z 24020G26KT 08/00 A2958 RMK A01 T00770003  RH  060%=      5-min Rain = 0
KARS 110735Z 24019KT 08/00 A2959 RMK A01 T00770003  RH  060%=      5-min Rain = 0
KARS 110740Z 24021G26KT 08/00 A2958 RMK A01 T00780003  RH  060%=      5-min Rain = 0
KARS 110745Z 24020G25KT 08/00 A2958 RMK A01 T00770003  RH  060%=      5-min Rain = 0
KARS 110750Z 24020G25KT 08/00 A2958 RMK A01 T00760003  RH  060%=      5-min Rain = 0
KARS 110755Z 24020KT 08/00 A2959 RMK A01 T00760003  RH  061%=      5-min Rain = 0
KARS 110800Z 24019G25KT 08/00 A2959 RMK A01 T00750004  RH  061%=      5-min Rain = 0
KARS 110805Z 25019KT 07/00 A296 RMK A01 T00740004  RH  062%=      5-min Rain = 0
KARS 110810Z 25019G24KT 07/00 A296 RMK A01 T00730004  RH  062%=      5-min Rain = 0
KARS 110815Z 25020G25KT 07/00 A296 RMK A01 T00730004  RH  062%=      5-min Rain = 0
KARS 110820Z 26017G23KT 07/00 A296 RMK A01 T00720004  RH  063%=      5-min Rain = 0
KARS 110825Z 26019KT 07/00 A296 RMK A01 T00730004  RH  063%=      5-min Rain = 0
KARS 110830Z 26017KT 07/00 A2961 RMK A01 T00710004  RH  063%=      5-min Rain = 0
KARS 110835Z 27015KT 07/00 A2962 RMK A01 T00710004  RH  063%=      5-min Rain = 0
KARS 110840Z 27017G23KT 07/01 A2962 RMK A01 T00730005  RH  063%=      5-min Rain = 0
KARS 110845Z 27019G25KT 08/01 A2963 RMK A01 T00770005  RH  061%=      5-min Rain = 0
KARS 110850Z 28020G26KT 08/01 A2963 RMK A01 T00820006  RH  059%=      5-min Rain = 0
KARS 110855Z 29020G26KT 09/01 A2964 RMK A01 T00870005  RH  057%=      5-min Rain = 0
KARS 110900Z 31017G23KT 09/01 A2964 RMK A01 T00870005  RH  057%=      5-min Rain = 0
KARS 110905Z 30017G22KT 09/01 A2964 RMK A01 T00890006  RH  057%=      5-min Rain = 0
KARS 110910Z 31014G20KT 09/01 A2964 RMK A01 T00900007  RH  057%=      5-min Rain = 0
KARS 110915Z 31013G19KT 09/01 A2965 RMK A01 T00910009  RH  057%=      5-min Rain = 0
KARS 110920Z 31012KT 09/01 A2965 RMK A01 T00930010  RH  057%=      5-min Rain = 0
KARS 110925Z 31011KT 09/01 A2966 RMK A01 T00940012  RH  057%=      5-min Rain = 0
KARS 110930Z 32013G25KT 09/01 A2966 RMK A01 T00940014  RH  058%=      5-min Rain = 0
KARS 110935Z 34029G36KT 10/03 A2966 RMK A01 T00970030  RH  064%=      5-min Rain = 0
KARS 110940Z 35024G31KT 10/03 A2967 RMK A01 T00970031  RH  065%=      5-min Rain = 0
KARS 110945Z 34025G31KT 10/03 A2967 RMK A01 T00960032  RH  066%=      5-min Rain = 0
KARS 110950Z 34027G36KT 09/03 A2968 RMK A01 T00920031  RH  067%=      5-min Rain = 0
KARS 110955Z 34029G36KT 09/03 A2968 RMK A01 T00880029  RH  068%=      5-min Rain = 0
KARS 111000Z 34029G37KT 09/03 A2968 RMK A01 T00850028  RH  069%=      5-min Rain = 0
KARS 111005Z 35028G37KT 08/03 A2969 RMK A01 T00830027  RH  069%=      5-min Rain = 0
KARS 111010Z 35027G37KT 08/03 A2969 RMK A01 T00820026  RH  069%=      5-min Rain = 0
KARS 111015Z 35025G34KT 08/02 A297 RMK A01 T00790024  RH  069%=      5-min Rain = 0
KARS 111020Z 35023G31KT 08/02 A297 RMK A01 T00780023  RH  069%=      5-min Rain = 0
KARS 111025Z 35023G29KT 08/02 A297 RMK A01 T00760022  RH  070%=      5-min Rain = 0
KARS 111030Z 35025G34KT 07/02 A297 RMK A01 T00740021  RH  070%=      5-min Rain = 0
KARS 111035Z 36022G30KT 07/02 A297 RMK A01 T00720020  RH  071%=      5-min Rain = 0
KARS 111040Z 35025G33KT 07/02 A297 RMK A01 T00680018  RH  071%=      5-min Rain = 0
KARS 111045Z 35023G30KT 07/02 A2971 RMK A01 T00650016  RH  072%=      5-min Rain = 0
KARS 111050Z 36028G35KT 06/02 A2971 RMK A01 T00630016  RH  073%=      5-min Rain = 0
KARS 111055Z 36027G37KT 06/02 A2971 RMK A01 T00620015  RH  073%=      5-min Rain = 0
KARS 111100Z 36023G30KT 06/02 A2972 RMK A01 T00600015  RH  074%=      5-min Rain = 0
KARS 111105Z 35018KT 06/01 A2973 RMK A01 T00580014  RH  075%=      5-min Rain = 0
KARS 111110Z 35016G26KT 06/02 A2974 RMK A01 T00570015  RH  075%=      5-min Rain = 0
KARS 111115Z 35025G33KT 06/01 A2974 RMK A01 T00550012  RH  075%=      5-min Rain = 0
KARS 111120Z 35025G31KT 05/01 A2975 RMK A01 T00490009  RH  076%=      5-min Rain = 0
KARS 111125Z 35026G34KT 05/01 A2976 RMK A01 T00450006  RH  077%=      5-min Rain = 0
KARS 111130Z 00025G36KT 04/00 A2977 RMK A01 T00410001  RH  076%=      5-min Rain = 0
KARS 111135Z 36023G33KT 04/M00 A2978 RMK A01 T00371001  RH  078%=      5-min Rain = 0
KARS 111140Z 36026G33KT 04/M00 A2978 RMK A01 T00361002  RH  077%=      5-min Rain = 0
KARS 111145Z 36025G32KT 04/M00 A2979 RMK A01 T00371002  RH  077%=      5-min Rain = 0
KARS 111150Z 36030G38KT 04/M00 A2979 RMK A01 T00361003  RH  076%=      5-min Rain = 0
KARS 111155Z 36031G41KT 04/M01 A2979 RMK A01 T00351005  RH  076%=      5-min Rain = 0
KARS 111200Z 00030G39KT 03/M01 A298 RMK A01 T00341006  RH  076%=      5-min Rain = 0
KARS 111205Z 00028G34KT 03/M01 A298 RMK A01 T00321008  RH  076%=      5-min Rain = 0
KARS 111210Z 00029G36KT 03/M01 A298 RMK A01 T00311008  RH  076%=      5-min Rain = 0
KARS 111215Z 36028G34KT 03/M01 A298 RMK A01 T00301009  RH  077%=      5-min Rain = 0
KARS 111220Z 35027G32KT 03/M01 A2981 RMK A01 T00291009  RH  077%=      5-min Rain = 0
KARS 111225Z 35027G39KT 03/M01 A2981 RMK A01 T00291010  RH  077%=      5-min Rain = 0
KARS 111230Z 36034G40KT 03/M02 A2981 RMK A01 T00251018  RH  074%=      5-min Rain = 0
KARS 111235Z 35033G42KT 02/M02 A2982 RMK A01 T00221020  RH  074%=      5-min Rain = 0
KARS 111240Z 36030G39KT 02/M02 A2982 RMK A01 T00201021  RH  075%=      5-min Rain = 0
KARS 111245Z 36032G40KT 02/M02 A2983 RMK A01 T00191022  RH  075%=      5-min Rain = 0
KARS 111250Z 36030G40KT 02/M02 A2983 RMK A01 T00171024  RH  075%=      5-min Rain = 0
KARS 111255Z 36030G39KT 02/M02 A2984 RMK A01 T00151024  RH  076%=      5-min Rain = 0
KARS 111300Z 00028G34KT 01/M02 A2985 RMK A01 T00131024  RH  077%=      5-min Rain = 0
KARS 111305Z 36026G34KT 01/M03 A2985 RMK A01 T00111026  RH  076%=      5-min Rain = 0
KARS 111310Z 00023G30KT 01/M03 A2986 RMK A01 T00091028  RH  076%=      5-min Rain = 0
KARS 111315Z 00023G28KT 01/M03 A2986 RMK A01 T00081029  RH  076%=      5-min Rain = 0
KARS 111320Z 36019G25KT 01/M03 A2987 RMK A01 T00071029  RH  077%=      5-min Rain = 0
KARS 111325Z 35022G36KT 01/M03 A2988 RMK A01 T00071029  RH  077%=      5-min Rain = 0
KARS 111330Z 35027G34KT 01/M03 A2988 RMK A01 T00061033  RH  075%=      5-min Rain = 0
KARS 111335Z 35025G35KT 00/M04 A2989 RMK A01 T00041037  RH  074%=      5-min Rain = 0
KARS 111340Z 35029G36KT 00/M04 A2989 RMK A01 T00021041  RH  073%=      5-min Rain = 0
KARS 111345Z 35028G36KT 00/M04 A2989 RMK A01 T00011042  RH  073%=      5-min Rain = 0
KARS 111350Z 35027G34KT 00/04 A299 RMK A01 T00000-43  RH  073%=      5-min Rain = 0
KARS 111355Z 35025G34KT 00/04 A299 RMK A01 T00-00-44  RH  073%=      5-min Rain = 0
KARS 111400Z 35024G32KT M00/M05 A2991 RMK A01 T10011045  RH  072%=      5-min Rain = 0
KARS 111405Z 35021G29KT M00/M05 A2992 RMK A01 T10021046  RH  072%=      5-min Rain = 0
KARS 111410Z 35025G32KT M00/M05 A2992 RMK A01 T10021048  RH  071%=      5-min Rain = 0
KARS 111415Z 35024G34KT M00/M05 A2993 RMK A01 T10011050  RH  070%=      5-min Rain = 0
KARS 111420Z 35023G30KT M00/M05 A2993 RMK A01 T10021051  RH  069%=      5-min Rain = 0
KARS 111425Z 35021G30KT M00/M05 A2994 RMK A01 T10021051  RH  070%=      5-min Rain = 0
KARS 111430Z 35021G27KT 00/05 A2995 RMK A01 T00000-50  RH  069%=      5-min Rain = 0
KARS 111435Z 35023G29KT 00/05 A2995 RMK A01 T00-00-52  RH  068%=      5-min Rain = 0
KARS 111440Z 35023G30KT M00/M06 A2996 RMK A01 T10021055  RH  068%=      5-min Rain = 0
KARS 111445Z 35025G34KT M00/M06 A2996 RMK A01 T10021059  RH  066%=      5-min Rain = 0
KARS 111450Z 36025G33KT M00/M06 A2996 RMK A01 T10021064  RH  063%=      5-min Rain = 0
KARS 111455Z 35027G36KT M00/M07 A2997 RMK A01 T10011066  RH  062%=      5-min Rain = 0
KARS 111500Z 35028G35KT M00/M07 A2997 RMK A01 T10021069  RH  061%=      5-min Rain = 0
KARS 111505Z 35029G36KT M00/M07 A2998 RMK A01 T10021069  RH  061%=      5-min Rain = 0
KARS 111510Z 35028G36KT M00/M07 A2998 RMK A01 T10031069  RH  061%=      5-min Rain = 0
KARS 111515Z 35024KT M00/M07 A2999 RMK A01 T10021067  RH  062%=      5-min Rain = 0
KARS 111520Z 35026G34KT M00/M07 A2999 RMK A01 T10011065  RH  062%=      5-min Rain = 0
KARS 111525Z 35028G35KT 00/06 A30 RMK A01 T00-00-64  RH  062%=      5-min Rain = 0
KARS 111530Z 35026G36KT 00/M06 A30 RMK A01 T00011063  RH  062%=      5-min Rain = 0
KARS 111535Z 35029G35KT 00/M06 A3001 RMK A01 T00031064  RH  061%=      5-min Rain = 0
KARS 111540Z 35026G33KT 01/M06 A3001 RMK A01 T00061064  RH  060%=      5-min Rain = 0
KARS 111545Z 35026G36KT 01/M06 A3002 RMK A01 T00081064  RH  059%=      5-min Rain = 0
KARS 111550Z 35029G36KT 01/M07 A3003 RMK A01 T00091065  RH  058%=      5-min Rain = 0
KARS 111555Z 35027G34KT 01/M07 A3003 RMK A01 T00111065  RH  057%=      5-min Rain = 0
KARS 111600Z 35026G33KT 01/M07 A3004 RMK A01 T00121066  RH  056%=      5-min Rain = 0
KARS 111605Z 36029G39KT 01/M07 A3004 RMK A01 T00141068  RH  054%=      5-min Rain = 0
KARS 111610Z 00027G36KT 01/M07 A3005 RMK A01 T00111071  RH  054%=      5-min Rain = 0
KARS 111615Z 36025G33KT 01/M07 A3005 RMK A01 T00111071  RH  054%=      5-min Rain = 0
KARS 111620Z 35026G34KT 01/M07 A3006 RMK A01 T00111072  RH  054%=      5-min Rain = 0
KARS 111625Z 35029G38KT 01/M07 A3006 RMK A01 T00121072  RH  053%=      5-min Rain = 0
KARS 111630Z 35030G39KT 01/M07 A3006 RMK A01 T00141073  RH  052%=      5-min Rain = 0
KARS 111635Z 35026G35KT 02/M07 A3007 RMK A01 T00181071  RH  052%=      5-min Rain = 0
KARS 111640Z 36022G28KT 03/M07 A3007 RMK A01 T00251069  RH  050%=      5-min Rain = 0
KARS 111645Z 35025G33KT 02/M07 A3008 RMK A01 T00231068  RH  051%=      5-min Rain = 0
KARS 111650Z 35027G33KT 02/M07 A3008 RMK A01 T00221071  RH  050%=      5-min Rain = 0
KARS 111655Z 35028G33KT 02/M07 A3008 RMK A01 T00231073  RH  049%=      5-min Rain = 0
KARS 111700Z 36027G33KT 03/M07 A3009 RMK A01 T00251074  RH  048%=      5-min Rain = 0
KARS 111705Z 36027G37KT 03/M08 A3009 RMK A01 T00271075  RH  047%=      5-min Rain = 0
KARS 111710Z 36029G38KT 03/M08 A3009 RMK A01 T00281077  RH  046%=      5-min Rain = 0
KARS 111715Z 35029KT 03/M08 A301 RMK A01 T00301076  RH  046%=      5-min Rain = 0
KARS 111720Z 36025G32KT 03/M08 A301 RMK A01 T00301076  RH  045%=      5-min Rain = 0
KARS 111725Z 35028G38KT 03/M08 A3011 RMK A01 T00321077  RH  044%=      5-min Rain = 0
KARS 111730Z 36029G37KT 03/M08 A3011 RMK A01 T00311083  RH  043%=      5-min Rain = 0
KARS 111735Z 36028G37KT 03/M08 A3012 RMK A01 T00331084  RH  042%=      5-min Rain = 0
KARS 111740Z 00029G36KT 03/M09 A3012 RMK A01 T00311087  RH  042%=      5-min Rain = 0
KARS 111745Z 36030G39KT 03/M09 A3012 RMK A01 T00321089  RH  041%=      5-min Rain = 0
KARS 111750Z 00028G36KT 03/M09 A3012 RMK A01 T00331088  RH  041%=      5-min Rain = 0
KARS 111755Z 36027G35KT 04/M09 A3012 RMK A01 T00381088  RH  039%=      5-min Rain = 0
KARS 111800Z 36024G34KT 04/M09 A3012 RMK A01 T00411088  RH  039%=      5-min Rain = 0
KARS 111805Z 36026G34KT 04/M09 A3013 RMK A01 T00421090  RH  037%=      5-min Rain = 0
KARS 111810Z 00028G36KT 04/M09 A3013 RMK A01 T00441091  RH  037%=      5-min Rain = 0
KARS 111815Z 01027G35KT 04/M09 A3013 RMK A01 T00441090  RH  037%=      5-min Rain = 0
KARS 111820Z 01024G30KT 04/M09 A3013 RMK A01 T00431088  RH  038%=      5-min Rain = 0
KARS 111825Z 36024G30KT 05/M09 A3013 RMK A01 T00491086  RH  037%=      5-min Rain = 0
KARS 111830Z 36021G27KT 05/M08 A3013 RMK A01 T00521083  RH  037%=      5-min Rain = 0
KARS 111835Z 35024G29KT 06/M08 A3013 RMK A01 T00551084  RH  036%=      5-min Rain = 0
KARS 111840Z 35024G31KT 06/M09 A3013 RMK A01 T00551086  RH  035%=      5-min Rain = 0
KARS 111845Z 36023G30KT 06/M09 A3013 RMK A01 T00561087  RH  035%=      5-min Rain = 0
KARS 111850Z 36027G33KT 06/M09 A3014 RMK A01 T00551090  RH  034%=      5-min Rain = 0
KARS 111855Z 00026G33KT 05/M09 A3014 RMK A01 T00541092  RH  034%=      5-min Rain = 0
KARS 111900Z 36026G34KT 06/M09 A3014 RMK A01 T00571093  RH  033%=      5-min Rain = 0
KARS 111905Z 00027G33KT 06/M09 A3014 RMK A01 T00581094  RH  032%=      5-min Rain = 0
KARS 111910Z 00027G33KT 06/M10 A3014 RMK A01 T00591096  RH  032%=      5-min Rain = 0
KARS 111915Z 00023G32KT 06/M09 A3014 RMK A01 T00621094  RH  031%=      5-min Rain = 0
KARS 111920Z 00026G35KT 06/M10 A3014 RMK A01 T00621096  RH  031%=      5-min Rain = 0
KARS 111925Z 00024G32KT 06/M10 A3014 RMK A01 T00631097  RH  031%=      5-min Rain = 0
KARS 111930Z 01023G30KT 07/M10 A3014 RMK A01 T00651096  RH  030%=      5-min Rain = 0
KARS 111935Z 01021G27KT 06/M09 A3014 RMK A01 T00641093  RH  031%=      5-min Rain = 0
KARS 111940Z 35024G33KT 07/M09 A3015 RMK A01 T00661093  RH  031%=      5-min Rain = 0
KARS 111945Z 35025G31KT 07/M10 A3015 RMK A01 T00661095  RH  030%=      5-min Rain = 0
KARS 111950Z 36023G30KT 07/M10 A3015 RMK A01 T00671095  RH  030%=      5-min Rain = 0
KARS 111955Z 36024G30KT 07/M10 A3014 RMK A01 T00681095  RH  030%=      5-min Rain = 0
KARS 112000Z 36023G28KT 07/M09 A3015 RMK A01 T00681094  RH  030%=      5-min Rain = 0
KARS 112005Z 01023G29KT 07/M09 A3015 RMK A01 T00691094  RH  030%=      5-min Rain = 0
KARS 112010Z 36019G24KT 07/M09 A3015 RMK A01 T00701092  RH  030%=      5-min Rain = 0
KARS 112015Z 00022G29KT 07/M09 A3015 RMK A01 T00711093  RH  030%=      5-min Rain = 0
KARS 112020Z 01021G26KT 07/M09 A3014 RMK A01 T00711092  RH  030%=      5-min Rain = 0
KARS 112025Z 01019G25KT 07/M09 A3015 RMK A01 T00731090  RH  030%=      5-min Rain = 0
KARS 112030Z 35022G28KT 08/M09 A3015 RMK A01 T00761092  RH  029%=      5-min Rain = 0
KARS 112035Z 36021G26KT 07/M09 A3015 RMK A01 T00741093  RH  029%=      5-min Rain = 0
KARS 112040Z 36018G23KT 08/M09 A3015 RMK A01 T00751092  RH  029%=      5-min Rain = 0
KARS 112045Z 00022G27KT 08/M10 A3015 RMK A01 T00771095  RH  028%=      5-min Rain = 0
KARS 112050Z 00019G25KT 08/M10 A3015 RMK A01 T00781095  RH  028%=      5-min Rain = 0
KARS 112055Z 35018KT 08/M09 A3015 RMK A01 T00801092  RH  028%=      5-min Rain = 0
KARS 112100Z 00020G27KT 08/M10 A3015 RMK A01 T00801095  RH  028%=      5-min Rain = 0
KARS 112105Z 00021G28KT 08/M10 A3015 RMK A01 T00801095  RH  028%=      5-min Rain = 0
KARS 112110Z 36023G28KT 08/M10 A3015 RMK A01 T00791097  RH  028%=      5-min Rain = 0
KARS 112115Z 00019G25KT 08/M10 A3015 RMK A01 T00801096  RH  027%=      5-min Rain = 0
KARS 112120Z 00018G24KT 09/M10 A3015 RMK A01 T00851096  RH  027%=      5-min Rain = 0
KARS 112125Z 36020G25KT 08/M10 A3016 RMK A01 T00841099  RH  026%=      5-min Rain = 0
KARS 112130Z 01020G25KT 08/M10 A3016 RMK A01 T00821100  RH  026%=      5-min Rain = 0
KARS 112135Z 01019G25KT 08/M10 A3016 RMK A01 T00821099  RH  027%=      5-min Rain = 0
KARS 112140Z 01019G25KT 08/M10 A3016 RMK A01 T00811097  RH  027%=      5-min Rain = 0
KARS 112145Z 01019G25KT 08/M10 A3016 RMK A01 T00821095  RH  027%=      5-min Rain = 0
KARS 112150Z 36019G26KT 08/M10 A3017 RMK A01 T00821096  RH  027%=      5-min Rain = 0
KARS 112155Z 36021G27KT 08/M10 A3017 RMK A01 T00821099  RH  027%=      5-min Rain = 0
KARS 112200Z 00020KT 08/M10 A3018 RMK A01 T00821099  RH  027%=      5-min Rain = 0
KARS 112205Z 36017G22KT 08/M10 A3018 RMK A01 T00801097  RH  027%=      5-min Rain = 0
KARS 112210Z 36018KT 08/M10 A3018 RMK A01 T00821097  RH  027%=      5-min Rain = 0
KARS 112215Z 01019G24KT 08/M10 A3018 RMK A01 T00811098  RH  027%=      5-min Rain = 0
KARS 112220Z 35021G27KT 08/M11 A3018 RMK A01 T00801105  RH  026%=      5-min Rain = 0
KARS 112225Z 00021G26KT 08/M10 A3019 RMK A01 T00781103  RH  026%=      5-min Rain = 0
KARS 112230Z 01019G24KT 08/M10 A3019 RMK A01 T00771104  RH  026%=      5-min Rain = 0
KARS 112235Z 00017G22KT 08/M10 A3019 RMK A01 T00771102  RH  027%=      5-min Rain = 0
KARS 112240Z 00018G25KT 08/M10 A3019 RMK A01 T00761101  RH  027%=      5-min Rain = 0
KARS 112245Z 36018KT 08/M10 A3019 RMK A01 T00761102  RH  027%=      5-min Rain = 0
KARS 112250Z 00018G24KT 08/M10 A3019 RMK A01 T00751101  RH  027%=      5-min Rain = 0
KARS 112255Z 00019G24KT 07/M10 A3019 RMK A01 T00731101  RH  028%=      5-min Rain = 0
KARS 112300Z 36016G21KT 07/M10 A302 RMK A01 T00721100  RH  028%=      5-min Rain = 0
KARS 112305Z 00014G20KT 07/M10 A302 RMK A01 T00711099  RH  028%=      5-min Rain = 0
KARS 112310Z 35017KT 07/M10 A302 RMK A01 T00701100  RH  029%=      5-min Rain = 0
KARS 112315Z 00016KT 07/M10 A302 RMK A01 T00701099  RH  029%=      5-min Rain = 0
KARS 112320Z 00013KT 07/M10 A3021 RMK A01 T00681099  RH  029%=      5-min Rain = 0
KARS 112325Z 00013G19KT 07/M10 A3021 RMK A01 T00661099  RH  030%=      5-min Rain = 0
KARS 112330Z 00010KT 06/M10 A3022 RMK A01 T00641099  RH  030%=      5-min Rain = 0
KARS 112335Z 36011KT 06/M10 A3022 RMK A01 T00621098  RH  030%=      5-min Rain = 0
KARS 112340Z 00010KT 06/M10 A3022 RMK A01 T00611098  RH  031%=      5-min Rain = 0
KARS 112345Z 00008KT 06/M10 A3022 RMK A01 T00551098  RH  032%=      5-min Rain = 0
KARS 112350Z 00008KT 05/M10 A3022 RMK A01 T00501099  RH  033%=      5-min Rain = 0
KARS 112355Z 35007KT 05/M10 A3023 RMK A01 T00451099  RH  034%=      5-min Rain = 0
KARS 120000Z 35009KT 05/M10 A3023 RMK A01 T00461097  RH  035%=      5-min Rain = 0
KARS 120005Z 35010KT 05/M10 A3023 RMK A01 T00481098  RH  034%=      5-min Rain = 0
KARS 120010Z 34009KT 05/M10 A3024 RMK A01 T00461098  RH  034%=      5-min Rain = 0
KARS 120015Z 34008KT 04/M10 A3024 RMK A01 T00421098  RH  035%=      5-min Rain = 0
KARS 120020Z 33007KT 04/M10 A3024 RMK A01 T00371100  RH  036%=      5-min Rain = 0
KARS 120025Z 32007KT 03/M10 A3024 RMK A01 T00321103  RH  036%=      5-min Rain = 0
KARS 120030Z 32007KT 03/M10 A3025 RMK A01 T00271103  RH  037%=      5-min Rain = 0
KARS 120035Z 33007KT 02/M10 A3025 RMK A01 T00221104  RH  039%=      5-min Rain = 0
KARS 120040Z 35007KT 02/M10 A3025 RMK A01 T00201103  RH  040%=      5-min Rain = 0
KARS 120045Z 35008KT 02/M10 A3025 RMK A01 T00201100  RH  040%=      5-min Rain = 0
KARS 120050Z 34007KT 02/M10 A3025 RMK A01 T00221099  RH  040%=      5-min Rain = 0
KARS 120055Z 32006KT 02/M10 A3025 RMK A01 T00201101  RH  040%=      5-min Rain = 0
KARS 120100Z 30006KT 01/M10 A3025 RMK A01 T00131104  RH  041%=      5-min Rain = 0
KARS 120105Z 32007KT 01/M10 A3026 RMK A01 T00071101  RH  044%=      5-min Rain = 0
KARS 120110Z 34008KT 01/M10 A3025 RMK A01 T00051104  RH  044%=      5-min Rain = 0
KARS 120115Z 35009KT 00/M10 A3025 RMK A01 T00031104  RH  044%=      5-min Rain = 0
KARS 120120Z 35008KT 01/M10 A3025 RMK A01 T00061103  RH  044%=      5-min Rain = 0
KARS 120125Z 35006KT 01/M10 A3025 RMK A01 T00051103  RH  044%=      5-min Rain = 0
KARS 120130Z 33006KT 00/M10 A3026 RMK A01 T00031103  RH  044%=      5-min Rain = 0
KARS 120135Z 32006KT M00/M11 A3026 RMK A01 T10011105  RH  045%=      5-min Rain = 0
KARS 120140Z 32006KT M01/M11 A3026 RMK A01 T10051108  RH  046%=      5-min Rain = 0
KARS 120145Z 32007KT M01/M11 A3027 RMK A01 T10101107  RH  047%=      5-min Rain = 0
KARS 120150Z 34007KT M01/M11 A3027 RMK A01 T10071106  RH  047%=      5-min Rain = 0
KARS 120155Z 34008KT M01/M11 A3027 RMK A01 T10061105  RH  047%=      5-min Rain = 0
KARS 120200Z 34008KT M01/M11 A3027 RMK A01 T10071105  RH  047%=      5-min Rain = 0
KARS 120205Z 34008KT M01/M11 A3026 RMK A01 T10101106  RH  048%=      5-min Rain = 0
KARS 120210Z 35008KT M01/M10 A3026 RMK A01 T10121103  RH  050%=      5-min Rain = 0
KARS 120215Z 36007KT M01/M10 A3026 RMK A01 T10121103  RH  050%=      5-min Rain = 0
KARS 120220Z 35006KT M02/M11 A3027 RMK A01 T10171105  RH  051%=      5-min Rain = 0
KARS 120225Z 34005KT M02/M11 A3027 RMK A01 T10221107  RH  052%=      5-min Rain = 0
KARS 120230Z 34005KT M03/M11 A3027 RMK A01 T10261107  RH  054%=      5-min Rain = 0
KARS 120235Z 35006KT M02/M11 A3027 RMK A01 T10241105  RH  054%=      5-min Rain = 0
KARS 120240Z 35005KT M02/M11 A3027 RMK A01 T10211105  RH  052%=      5-min Rain = 0
KARS 120245Z 35005KT M02/M11 A3027 RMK A01 T10201105  RH  052%=      5-min Rain = 0
KARS 120250Z 00006KT M02/M11 A3026 RMK A01 T10221106  RH  052%=      5-min Rain = 0
KARS 120255Z 01006KT M03/M11 A3026 RMK A01 T10251105  RH  054%=      5-min Rain = 0
KARS 120300Z 02006KT M03/M10 A3026 RMK A01 T10261103  RH  055%=      5-min Rain = 0
KARS 120305Z 03006KT M03/M10 A3026 RMK A01 T10261103  RH  055%=      5-min Rain = 0
KARS 120310Z 03006KT M03/M10 A3026 RMK A01 T10301104  RH  056%=      5-min Rain = 0
KARS 120315Z 03006KT M03/M11 A3026 RMK A01 T10311106  RH  056%=      5-min Rain = 0
KARS 120320Z 03006KT M03/M11 A3026 RMK A01 T10331107  RH  056%=      5-min Rain = 0
KARS 120325Z 03007KT M04/M11 A3026 RMK A01 T10351107  RH  057%=      5-min Rain = 0
KARS 120330Z 03006KT M04/M11 A3026 RMK A01 T10351107  RH  057%=      5-min Rain = 0
KARS 120335Z 02005KT M04/M11 A3026 RMK A01 T10361106  RH  058%=      5-min Rain = 0
KARS 120340Z 36003KT M04/M11 A3027 RMK A01 T10381106  RH  059%=      5-min Rain = 0
KARS 120345Z 33002KT M04/M11 A3027 RMK A01 T10401108  RH  059%=      5-min Rain = 0
KARS 120350Z 35003KT M04/M11 A3027 RMK A01 T10441108  RH  061%=      5-min Rain = 0
KARS 120355Z 36003KT M04/M11 A3027 RMK A01 T10421107  RH  060%=      5-min Rain = 0
KARS 120400Z 02003KT M04/M11 A3027 RMK A01 T10401105  RH  060%=      5-min Rain = 0
KARS 120405Z 02003KT M04/M10 A3027 RMK A01 T10361104  RH  059%=      5-min Rain = 0
KARS 120410Z 03004KT M03/M11 A3027 RMK A01 T10341106  RH  057%=      5-min Rain = 0
KARS 120415Z 04005KT M04/M11 A3027 RMK A01 T10351107  RH  057%=      5-min Rain = 0
KARS 120420Z 05005KT M04/M11 A3027 RMK A01 T10361109  RH  057%=      5-min Rain = 0
KARS 120425Z 05006KT M04/M11 A3027 RMK A01 T10371106  RH  059%=      5-min Rain = 0
KARS 120430Z 05006KT M04/M10 A3027 RMK A01 T10351102  RH  059%=      5-min Rain = 0
KARS 120435Z 04007KT M03/M10 A3027 RMK A01 T10331103  RH  058%=      5-min Rain = 0
KARS 120440Z 05007KT M04/M11 A3027 RMK A01 T10381109  RH  058%=      5-min Rain = 0
KARS 120445Z 04005KT M04/M11 A3028 RMK A01 T10441111  RH  059%=      5-min Rain = 0
KARS 120450Z 04005KT M05/M11 A3028 RMK A01 T10471111  RH  061%=      5-min Rain = 0
KARS 120455Z 03004KT M04/M11 A3028 RMK A01 T10441105  RH  062%=      5-min Rain = 0
KARS 120500Z 03004KT M04/M11 A3028 RMK A01 T10431106  RH  061%=      5-min Rain = 0
KARS 120505Z 03003KT M05/M11 A3028 RMK A01 T10451108  RH  061%=      5-min Rain = 0
KARS 120510Z 03004KT M04/M11 A3028 RMK A01 T10431105  RH  062%=      5-min Rain = 0
KARS 120515Z 04004KT M04/M10 A3028 RMK A01 T10411104  RH  061%=      5-min Rain = 0
KARS 120520Z 04005KT M04/M10 A3028 RMK A01 T10401103  RH  061%=      5-min Rain = 0
KARS 120525Z 04005KT M04/M10 A3028 RMK A01 T10381103  RH  061%=      5-min Rain = 0
KARS 120530Z 04004KT M04/M10 A3028 RMK A01 T10391104  RH  060%=      5-min Rain = 0
KARS 120535Z 04004KT M04/M11 A3028 RMK A01 T10421106  RH  061%=      5-min Rain = 0
KARS 120540Z 04004KT M04/M10 A3028 RMK A01 T10431104  RH  062%=      5-min Rain = 0
KARS 120545Z 04004KT M04/M10 A3027 RMK A01 T10431103  RH  063%=      5-min Rain = 0
KARS 120550Z 02003KT M04/M10 A3027 RMK A01 T10421103  RH  062%=      5-min Rain = 0
KARS 120555Z 01003KT M04/M10 A3027 RMK A01 T10421104  RH  062%=      5-min Rain = 0

Page generated in 0.0086 seconds.